createdAt,value
2023-05-18T00:01:54.322Z,99147.00
2023-05-18T00:04:26.360Z,99160.00
2023-05-18T00:06:57.146Z,99156.00
2023-05-18T00:09:27.544Z,99166.00
2023-05-18T00:12:00.882Z,99159.00
2023-05-18T00:14:31.510Z,99163.00
2023-05-18T00:17:02.090Z,99164.00
2023-05-18T00:19:32.363Z,99167.00
2023-05-18T00:22:02.427Z,99165.00
2023-05-18T00:24:33.338Z,99177.00
2023-05-18T00:27:06.925Z,99174.00
2023-05-18T00:29:36.989Z,99174.00
2023-05-18T00:32:07.744Z,99165.00
2023-05-18T00:34:40.350Z,99182.00
2023-05-18T00:37:10.446Z,99186.00
2023-05-18T00:39:40.512Z,99180.00
2023-05-18T00:42:13.216Z,99185.00
2023-05-18T00:44:43.229Z,99183.00
2023-05-18T00:47:13.337Z,99197.00
2023-05-18T00:49:43.378Z,99192.00
2023-05-18T00:52:13.429Z,99198.00
2023-05-18T00:54:43.938Z,99192.00
2023-05-18T00:57:19.264Z,99198.00
2023-05-18T00:59:49.864Z,99193.00
2023-05-18T01:02:20.570Z,99200.00
2023-05-18T01:04:52.999Z,99195.00
2023-05-18T01:07:23.376Z,99201.00
2023-05-18T01:09:53.848Z,99206.00
2023-05-18T01:12:31.461Z,99205.00
2023-05-18T01:15:07.021Z,99199.00
2023-05-18T01:17:42.186Z,99202.00
2023-05-18T01:20:21.120Z,99212.00
2023-05-18T01:23:12.068Z,99219.00
2023-05-18T01:25:50.645Z,99214.00
2023-05-18T01:28:26.599Z,99220.00
2023-05-18T01:30:57.840Z,99221.00
2023-05-18T01:33:28.186Z,99215.00
2023-05-18T01:35:58.253Z,99229.00
2023-05-18T01:38:30.655Z,99223.00
2023-05-18T01:41:05.637Z,99208.00
2023-05-18T01:43:39.963Z,99225.00
2023-05-18T01:46:16.522Z,99216.00
2023-05-18T01:48:51.169Z,99236.00
2023-05-18T01:51:23.720Z,99229.00
2023-05-18T01:53:58.525Z,99229.00
2023-05-18T01:56:29.253Z,99217.00
2023-05-18T01:59:02.904Z,99232.00
2023-05-18T02:01:33.591Z,99232.00
2023-05-18T02:04:03.682Z,99227.00
2023-05-18T02:06:33.810Z,99236.00
2023-05-18T02:09:04.267Z,99236.00
2023-05-18T02:11:34.473Z,99237.00
2023-05-18T02:14:07.695Z,99240.00
2023-05-18T02:16:37.966Z,99244.00
2023-05-18T02:19:08.258Z,99244.00
2023-05-18T02:21:38.457Z,99243.00
2023-05-18T02:24:09.590Z,99245.00
2023-05-18T02:26:40.168Z,99246.00
2023-05-18T02:29:14.812Z,99242.00
2023-05-18T02:31:44.976Z,99243.00
2023-05-18T02:34:15.664Z,99240.00
2023-05-18T02:36:46.440Z,99243.00
2023-05-18T02:39:16.772Z,99241.00
2023-05-18T02:41:46.847Z,99235.00
2023-05-18T02:44:19.478Z,99237.00
2023-05-18T02:46:49.604Z,99250.00
2023-05-18T02:49:19.665Z,99244.00
2023-05-18T02:51:49.796Z,99246.00
2023-05-18T02:54:20.250Z,99250.00
2023-05-18T02:56:50.680Z,99248.00
2023-05-18T02:59:33.554Z,99255.00
2023-05-18T03:02:03.678Z,99256.00
2023-05-18T03:04:33.791Z,99250.00
2023-05-18T03:07:04.597Z,99257.00
2023-05-18T03:09:34.720Z,99258.00
2023-05-18T03:12:05.525Z,99269.00
2023-05-18T03:14:38.312Z,99266.00
2023-05-18T03:17:09.226Z,99268.00
2023-05-18T03:19:39.317Z,99276.00
2023-05-18T03:22:09.677Z,99286.00
2023-05-18T03:24:40.476Z,99277.00
2023-05-18T03:27:16.812Z,99289.00
2023-05-18T03:29:50.866Z,99284.00
2023-05-18T03:32:21.700Z,99289.00
2023-05-18T03:34:53.235Z,99289.00
2023-05-18T03:37:24.530Z,99288.00
2023-05-18T03:39:54.601Z,99292.00
2023-05-18T03:42:25.964Z,99295.00
2023-05-18T03:44:58.923Z,99281.00
2023-05-18T03:47:30.108Z,99293.00
2023-05-18T03:50:00.239Z,99290.00
2023-05-18T03:52:30.960Z,99296.00
2023-05-18T03:55:00.957Z,99297.00
2023-05-18T03:57:32.003Z,99298.00
2023-05-18T04:00:08.028Z,99312.00
2023-05-18T04:02:47.414Z,99317.00
2023-05-18T04:05:22.244Z,99306.00
2023-05-18T04:07:52.318Z,99309.00
2023-05-18T04:10:22.688Z,99308.00
2023-05-18T04:12:52.993Z,99324.00
2023-05-18T04:15:25.888Z,99317.00
2023-05-18T04:17:56.001Z,99321.00
2023-05-18T04:20:28.502Z,99321.00
2023-05-18T04:22:59.080Z,99322.00
2023-05-18T04:25:30.027Z,99320.00
2023-05-18T04:28:00.669Z,99326.00
2023-05-18T04:30:35.687Z,99330.00
2023-05-18T04:33:06.826Z,99326.00
2023-05-18T04:35:37.030Z,99326.00
2023-05-18T04:38:07.222Z,99326.00
2023-05-18T04:40:38.310Z,99332.00
2023-05-18T04:43:08.640Z,99330.00
2023-05-18T04:45:41.329Z,99333.00
2023-05-18T04:48:11.586Z,99314.00
2023-05-18T04:50:42.278Z,99335.00
2023-05-18T04:53:12.496Z,99323.00
2023-05-18T04:55:42.953Z,99321.00
2023-05-18T04:58:15.273Z,99331.00
2023-05-18T05:00:48.558Z,99324.00
2023-05-18T05:03:18.780Z,99326.00
2023-05-18T05:05:48.933Z,99329.00
2023-05-18T05:08:19.172Z,99325.00
2023-05-18T05:10:49.292Z,99332.00
2023-05-18T05:13:19.387Z,99341.00
2023-05-18T05:15:52.065Z,99326.00
2023-05-18T05:18:22.395Z,99334.00
2023-05-18T05:20:53.608Z,99326.00
2023-05-18T05:23:24.628Z,99337.00
2023-05-18T05:25:54.675Z,99325.00
2023-05-18T05:28:24.762Z,99341.00
2023-05-18T05:30:57.486Z,99342.00
2023-05-18T05:33:27.547Z,99339.00
2023-05-18T05:35:58.052Z,99341.00
2023-05-18T05:38:28.098Z,99339.00
2023-05-18T05:40:58.445Z,99331.00
2023-05-18T05:43:28.574Z,99331.00
2023-05-18T05:46:01.692Z,99320.00
2023-05-18T05:48:31.870Z,99336.00
2023-05-18T05:51:01.957Z,99339.00
2023-05-18T05:53:33.157Z,99341.00
2023-05-18T05:56:03.290Z,99345.00
2023-05-18T05:58:34.726Z,99334.00
2023-05-18T06:01:08.714Z,99338.00
2023-05-18T06:03:39.314Z,99339.00
2023-05-18T06:06:10.552Z,99344.00
2023-05-18T06:08:40.620Z,99336.00
2023-05-18T06:11:11.557Z,99328.00
2023-05-18T06:13:43.151Z,99332.00
2023-05-18T06:16:15.874Z,99324.00
2023-05-18T06:18:46.068Z,99330.00
2023-05-18T06:21:16.466Z,99331.00
2023-05-18T06:23:47.412Z,99332.00
2023-05-18T06:26:37.796Z,99338.00
2023-05-18T06:29:34.018Z,99335.00
2023-05-18T06:32:38.943Z,99344.00
2023-05-18T06:35:10.380Z,99333.00
2023-05-18T06:37:40.487Z,99344.00
2023-05-18T06:40:12.198Z,99343.00
2023-05-18T06:42:42.392Z,99350.00
2023-05-18T06:45:35.267Z,99354.00
2023-05-18T06:48:17.904Z,99350.00
2023-05-18T06:50:48.036Z,99350.00
2023-05-18T06:53:18.157Z,99350.00
2023-05-18T06:55:48.312Z,99354.00
2023-05-18T06:58:18.472Z,99350.00
2023-05-18T07:00:49.541Z,99356.00
2023-05-18T07:03:23.374Z,99360.00
2023-05-18T07:05:53.450Z,99366.00
2023-05-18T07:08:25.041Z,99368.00
2023-05-18T07:10:58.143Z,99378.00
2023-05-18T07:13:28.609Z,99364.00
2023-05-18T07:15:58.705Z,99367.00
2023-05-18T07:18:31.582Z,99364.00
2023-05-18T07:21:01.624Z,99356.00
2023-05-18T07:23:32.054Z,99369.00
2023-05-18T07:26:02.145Z,99366.00
2023-05-18T07:28:32.302Z,99372.00
2023-05-18T07:31:02.388Z,99370.00
2023-05-18T07:33:35.141Z,99376.00
2023-05-18T07:36:05.234Z,99366.00
2023-05-18T07:38:35.284Z,99373.00
2023-05-18T07:41:05.381Z,99371.00
2023-05-18T07:43:35.440Z,99371.00
2023-05-18T07:46:05.582Z,99375.00
2023-05-18T07:48:40.566Z,99371.00
2023-05-18T07:51:11.150Z,99380.00
2023-05-18T07:53:41.749Z,99383.00
2023-05-18T07:56:12.454Z,99379.00
2023-05-18T07:58:43.430Z,99380.00
2023-05-18T08:01:13.467Z,99376.00
2023-05-18T08:03:46.204Z,99377.00
2023-05-18T08:06:16.317Z,99367.00
2023-05-18T08:08:46.956Z,99371.00
2023-05-18T08:11:17.084Z,99373.00
2023-05-18T08:13:47.303Z,99369.00
2023-05-18T08:16:17.441Z,99370.00
2023-05-18T08:18:50.187Z,99376.00
2023-05-18T08:21:20.381Z,99369.00
2023-05-18T08:23:50.861Z,99376.00
2023-05-18T08:26:20.911Z,99380.00
2023-05-18T08:28:51.545Z,99383.00
2023-05-18T08:31:21.646Z,99378.00
2023-05-18T08:33:54.335Z,99379.00
2023-05-18T08:36:24.382Z,99380.00
2023-05-18T08:38:55.319Z,99383.00
2023-05-18T08:41:29.858Z,99372.00
2023-05-18T08:44:05.233Z,99380.00
2023-05-18T08:46:37.562Z,99384.00
2023-05-18T08:49:12.723Z,99383.00
2023-05-18T08:51:44.050Z,99379.00
2023-05-18T08:54:14.405Z,99384.00
2023-05-18T08:56:44.557Z,99384.00
2023-05-18T08:59:15.026Z,99381.00
2023-05-18T09:01:45.296Z,99383.00
2023-05-18T09:04:18.255Z,99379.00
2023-05-18T09:06:48.767Z,99384.00
2023-05-18T09:09:19.214Z,99383.00
2023-05-18T09:11:50.307Z,99372.00
2023-05-18T09:14:23.136Z,99384.00
2023-05-18T09:16:53.226Z,99386.00
2023-05-18T09:19:26.002Z,99384.00
2023-05-18T09:21:56.085Z,99389.00
2023-05-18T09:24:26.247Z,99385.00
2023-05-18T09:26:56.394Z,99382.00
2023-05-18T09:29:26.980Z,99392.00
2023-05-18T09:31:57.096Z,99380.00
2023-05-18T09:34:42.445Z,99380.00
2023-05-18T09:37:12.872Z,99379.00
2023-05-18T09:39:42.893Z,99379.00
2023-05-18T09:42:12.973Z,99387.00
2023-05-18T09:44:43.183Z,99373.00
2023-05-18T09:47:13.393Z,99377.00
2023-05-18T09:49:46.511Z,99383.00
2023-05-18T09:52:16.564Z,99394.00
2023-05-18T09:54:46.672Z,99374.00
2023-05-18T09:57:16.708Z,99373.00
2023-05-18T09:59:46.748Z,99384.00
2023-05-18T10:02:18.575Z,99371.00
2023-05-18T10:04:51.332Z,99378.00
2023-05-18T10:07:21.415Z,99391.00
2023-05-18T10:10:05.065Z,99389.00
2023-05-18T10:12:36.081Z,99386.00
2023-05-18T10:15:06.219Z,99376.00
2023-05-18T10:17:38.131Z,99379.00
2023-05-18T10:20:12.867Z,99383.00
2023-05-18T10:22:43.710Z,99379.00
2023-05-18T10:25:14.862Z,99383.00
2023-05-18T10:27:45.340Z,99380.00
2023-05-18T10:30:18.014Z,99377.00
2023-05-18T10:32:49.138Z,99379.00
2023-05-18T10:35:24.052Z,99370.00
2023-05-18T10:37:55.507Z,99370.00
2023-05-18T10:40:26.784Z,99379.00
2023-05-18T10:42:57.253Z,99359.00
2023-05-18T10:45:28.000Z,99381.00
2023-05-18T10:47:58.342Z,99380.00
2023-05-18T10:50:31.451Z,99377.00
2023-05-18T10:53:02.813Z,166518.00
2023-05-18T10:55:32.930Z,235282.00
2023-05-18T10:58:14.520Z,235282.00
2023-05-18T11:00:45.896Z,235282.00
2023-05-18T11:03:17.597Z,235282.00
2023-05-18T11:05:52.560Z,235282.00
2023-05-18T11:08:29.460Z,235282.00
2023-05-18T11:11:04.945Z,235282.00
2023-05-18T11:13:36.381Z,235282.00
2023-05-18T11:16:10.901Z,235282.00
2023-05-18T11:18:46.524Z,235282.00
2023-05-18T11:21:54.215Z,235282.00
2023-05-18T11:24:29.257Z,235282.00
2023-05-18T11:27:00.562Z,235282.00
2023-05-18T11:29:34.905Z,235282.00
2023-05-18T11:32:05.480Z,235282.00
2023-05-18T11:34:40.247Z,235282.00
2023-05-18T11:37:13.383Z,235282.00
2023-05-18T11:39:55.314Z,235282.00
2023-05-18T11:42:35.234Z,235282.00
2023-05-18T11:45:11.936Z,235282.00
2023-05-18T11:47:42.976Z,235282.00
2023-05-18T11:50:14.979Z,235282.00
2023-05-18T11:52:55.437Z,235282.00
2023-05-18T11:55:25.814Z,235282.00
2023-05-18T11:57:56.396Z,235282.00
2023-05-18T12:00:27.398Z,235282.00
2023-05-18T12:02:59.830Z,235282.00
2023-05-18T12:05:34.479Z,235282.00
2023-05-18T12:08:07.826Z,235282.00
2023-05-18T12:10:40.001Z,235282.00
2023-05-18T12:13:10.163Z,235282.00
2023-05-18T12:15:41.286Z,235282.00
2023-05-18T12:18:11.483Z,235282.00
2023-05-18T12:20:43.812Z,235282.00
2023-05-18T12:23:16.542Z,235282.00
2023-05-18T12:25:46.600Z,235282.00
2023-05-18T12:28:18.381Z,235282.00
2023-05-18T12:30:48.482Z,235282.00
2023-05-18T12:33:18.554Z,235282.00
2023-05-18T12:35:49.054Z,235282.00
2023-05-18T12:38:23.367Z,235282.00
2023-05-18T12:40:54.488Z,235282.00
2023-05-18T12:43:24.904Z,235282.00
2023-05-18T12:45:55.562Z,235282.00
2023-05-18T12:48:26.828Z,235282.00
2023-05-18T12:50:56.903Z,235282.00
2023-05-18T12:53:29.585Z,235282.00
2023-05-18T12:56:01.893Z,235282.00
2023-05-18T12:58:33.132Z,235282.00
2023-05-18T13:01:10.460Z,235282.00
2023-05-18T13:03:43.596Z,235282.00
2023-05-18T13:06:13.813Z,235282.00
2023-05-18T13:08:46.544Z,235282.00
2023-05-18T13:11:16.988Z,235282.00
2023-05-18T13:14:03.640Z,235282.00
2023-05-18T13:16:34.310Z,235282.00
2023-05-18T13:19:06.632Z,235282.00
2023-05-18T13:21:37.130Z,235282.00
2023-05-18T13:24:10.415Z,235282.00
2023-05-18T13:26:41.150Z,235282.00
2023-05-18T13:29:11.572Z,235282.00
2023-05-18T13:31:41.670Z,235282.00
2023-05-18T13:34:11.804Z,235282.00
2023-05-18T13:36:41.890Z,235282.00
2023-05-18T13:39:14.965Z,235282.00
2023-05-18T13:41:44.991Z,235282.00
2023-05-18T13:44:16.276Z,235282.00
2023-05-18T13:46:46.407Z,235282.00
2023-05-18T13:49:16.482Z,235282.00
2023-05-18T13:51:46.554Z,235282.00
2023-05-18T13:54:19.184Z,235282.00
2023-05-18T13:56:49.469Z,235282.00
2023-05-18T13:59:19.780Z,235282.00
2023-05-18T14:01:49.913Z,235282.00
2023-05-18T14:04:19.975Z,235282.00
2023-05-18T14:06:50.011Z,235282.00
2023-05-18T14:09:22.765Z,235282.00
2023-05-18T14:11:53.854Z,235282.00
2023-05-18T14:14:24.060Z,235282.00
2023-05-18T14:16:54.507Z,235282.00
2023-05-18T14:19:24.610Z,235282.00
2023-05-18T14:21:54.669Z,235282.00
2023-05-18T14:24:27.440Z,235282.00
2023-05-18T14:26:57.476Z,235282.00
2023-05-18T14:29:27.848Z,235282.00
2023-05-18T14:31:57.897Z,235282.00
2023-05-18T14:34:27.971Z,235282.00
2023-05-18T14:36:58.019Z,235282.00
2023-05-18T14:39:30.725Z,235282.00
2023-05-18T14:42:00.982Z,235282.00
2023-05-18T14:44:31.041Z,235282.00
2023-05-18T14:47:01.808Z,235282.00
2023-05-18T14:49:32.030Z,235282.00
2023-05-18T14:52:02.149Z,235282.00
2023-05-18T14:54:34.821Z,235282.00
2023-05-18T14:57:04.883Z,235282.00
2023-05-18T14:59:34.923Z,235282.00
2023-05-18T15:02:05.253Z,235282.00
2023-05-18T15:04:36.284Z,235282.00
2023-05-18T15:07:06.697Z,235282.00
2023-05-18T15:09:39.375Z,235282.00
2023-05-18T15:12:10.075Z,235282.00
2023-05-18T15:14:40.965Z,235282.00
2023-05-18T15:17:11.041Z,235282.00
2023-05-18T15:19:41.093Z,235282.00
2023-05-18T15:22:21.668Z,235282.00
2023-05-18T15:25:00.561Z,235282.00
2023-05-18T15:27:30.719Z,235282.00
2023-05-18T15:30:00.805Z,235282.00
2023-05-18T15:32:30.961Z,235282.00
2023-05-18T15:35:01.120Z,235282.00
2023-05-18T15:37:31.205Z,235282.00
2023-05-18T15:40:04.192Z,235282.00
2023-05-18T15:42:34.250Z,235282.00
2023-05-18T15:45:05.250Z,235282.00
2023-05-18T15:47:35.336Z,235282.00
2023-05-18T15:50:05.493Z,235282.00
2023-05-18T15:52:35.529Z,235282.00
2023-05-18T15:55:09.346Z,235282.00
2023-05-18T15:57:39.555Z,235282.00
2023-05-18T16:00:11.276Z,235282.00
2023-05-18T16:02:44.425Z,235282.00
2023-05-18T16:05:14.596Z,235282.00
2023-05-18T16:07:46.371Z,235282.00
2023-05-18T16:10:19.054Z,235282.00
2023-05-18T16:12:49.105Z,235282.00
2023-05-18T16:15:20.360Z,235282.00
2023-05-18T16:17:50.511Z,235282.00
2023-05-18T16:20:21.430Z,235282.00
2023-05-18T16:22:51.651Z,235282.00
2023-05-18T16:25:24.538Z,235282.00
2023-05-18T16:27:54.659Z,235282.00
2023-05-18T16:30:24.731Z,235282.00
2023-05-18T16:32:54.826Z,235282.00
2023-05-18T16:35:24.868Z,235282.00
2023-05-18T16:37:55.175Z,235282.00
2023-05-18T16:40:28.162Z,235282.00
2023-05-18T16:42:58.390Z,235282.00
2023-05-18T16:45:30.135Z,235282.00
2023-05-18T16:48:15.314Z,235282.00
2023-05-18T16:50:46.913Z,235282.00
2023-05-18T16:53:17.386Z,235282.00
2023-05-18T16:55:50.584Z,235282.00
2023-05-18T16:58:25.613Z,235282.00
2023-05-18T17:01:01.285Z,235282.00
2023-05-18T17:03:34.734Z,235282.00
2023-05-18T17:06:20.786Z,235282.00
2023-05-18T17:09:00.468Z,235282.00
2023-05-18T17:11:44.506Z,235282.00
2023-05-18T17:14:14.573Z,235282.00
2023-05-18T17:16:53.034Z,235282.00
2023-05-18T17:19:28.113Z,235282.00
2023-05-18T17:21:59.346Z,235282.00
2023-05-18T17:24:29.885Z,235282.00
2023-05-18T17:27:03.236Z,235282.00
2023-05-18T17:29:33.388Z,235282.00
2023-05-18T17:32:03.562Z,235282.00
2023-05-18T17:34:34.001Z,235282.00
2023-05-18T17:37:05.088Z,235282.00
2023-05-18T17:39:38.720Z,235282.00
2023-05-18T17:42:15.281Z,235282.00
2023-05-18T17:44:47.628Z,235282.00
2023-05-18T17:47:35.296Z,235282.00
2023-05-18T17:50:07.872Z,235282.00
2023-05-18T17:52:47.074Z,235282.00
2023-05-18T17:55:18.022Z,129011.00
2023-05-18T17:58:06.254Z,99331.00
2023-05-18T18:00:55.090Z,99326.00
2023-05-18T18:03:34.500Z,99327.00
2023-05-18T18:06:09.722Z,99329.00
2023-05-18T18:08:43.096Z,99322.00
2023-05-18T18:11:20.315Z,99327.00
2023-05-18T18:13:57.451Z,99324.00
2023-05-18T18:16:30.860Z,99333.00
2023-05-18T18:19:08.224Z,99342.00
2023-05-18T18:21:38.336Z,99332.00
2023-05-18T18:24:11.450Z,99329.00
2023-05-18T18:26:50.033Z,99326.00
2023-05-18T18:29:33.228Z,99337.00
2023-05-18T18:32:03.416Z,99333.00
2023-05-18T18:34:33.462Z,99342.00
2023-05-18T18:37:04.182Z,99336.00
2023-05-18T18:39:35.151Z,99342.00
2023-05-18T18:42:05.262Z,99344.00
2023-05-18T18:44:37.975Z,99348.00
2023-05-18T18:47:08.542Z,99350.00
2023-05-18T18:49:38.621Z,99357.00
2023-05-18T18:52:10.326Z,99358.00
2023-05-18T18:54:41.867Z,99355.00
2023-05-18T18:57:12.377Z,99352.00
2023-05-18T18:59:45.035Z,99355.00
2023-05-18T19:02:15.400Z,99352.00
2023-05-18T19:04:45.591Z,99357.00
2023-05-18T19:07:15.703Z,99362.00
2023-05-18T19:09:45.809Z,99358.00
2023-05-18T19:12:15.890Z,99362.00
2023-05-18T19:14:48.706Z,99363.00
2023-05-18T19:17:18.904Z,99371.00
2023-05-18T19:19:48.942Z,99369.00
2023-05-18T19:22:19.014Z,99376.00
2023-05-18T19:24:49.095Z,99380.00
2023-05-18T19:27:19.149Z,99377.00
2023-05-18T19:29:52.016Z,99374.00
2023-05-18T19:32:22.109Z,99377.00
2023-05-18T19:34:52.127Z,99383.00
2023-05-18T19:37:22.222Z,99371.00
2023-05-18T19:39:52.344Z,99375.00
2023-05-18T19:42:22.472Z,99363.00
2023-05-18T19:44:55.176Z,99365.00
2023-05-18T19:47:25.392Z,99370.00
2023-05-18T19:49:55.515Z,99376.00
2023-05-18T19:52:25.570Z,99381.00
2023-05-18T19:54:56.459Z,99377.00
2023-05-18T19:57:26.723Z,99373.00
2023-05-18T19:59:59.388Z,164641.00
2023-05-18T20:02:29.516Z,235282.00
2023-05-18T20:05:00.590Z,235282.00
2023-05-18T20:07:31.461Z,235282.00
2023-05-18T20:10:01.530Z,235282.00
2023-05-18T20:12:32.421Z,235282.00
2023-05-18T20:15:05.128Z,235282.00
2023-05-18T20:17:35.191Z,235282.00
2023-05-18T20:20:06.347Z,235282.00
2023-05-18T20:22:36.424Z,235282.00
2023-05-18T20:25:06.873Z,235282.00
2023-05-18T20:27:37.322Z,235282.00
2023-05-18T20:30:11.721Z,235282.00
2023-05-18T20:32:41.801Z,235282.00
2023-05-18T20:35:12.951Z,235282.00
2023-05-18T20:37:44.161Z,235282.00
2023-05-18T20:40:14.685Z,235282.00
2023-05-18T20:42:44.742Z,235282.00
2023-05-18T20:45:18.600Z,235282.00
2023-05-18T20:47:50.760Z,235282.00
2023-05-18T20:50:21.260Z,235282.00
2023-05-18T20:52:51.404Z,235282.00
2023-05-18T20:55:22.296Z,99408.00
2023-05-18T20:57:52.399Z,99402.00
2023-05-18T21:00:25.262Z,99409.00
2023-05-18T21:02:55.358Z,99401.00
2023-05-18T21:05:25.837Z,99409.00
2023-05-18T21:07:55.951Z,99414.00
2023-05-18T21:10:25.980Z,99407.00
2023-05-18T21:12:56.146Z,99408.00
2023-05-18T21:15:29.853Z,99401.00
2023-05-18T21:17:59.995Z,99394.00
2023-05-18T21:20:30.188Z,99400.00
2023-05-18T21:23:00.322Z,99396.00
2023-05-18T21:25:30.407Z,99393.00
2023-05-18T21:28:00.500Z,99399.00
2023-05-18T21:30:33.702Z,99398.00
2023-05-18T21:33:04.045Z,99397.00
2023-05-18T21:35:34.257Z,99397.00
2023-05-18T21:38:04.300Z,99409.00
2023-05-18T21:40:34.561Z,99406.00
2023-05-18T21:43:04.724Z,99405.00
2023-05-18T21:45:37.620Z,99413.00
2023-05-18T21:48:08.746Z,99411.00
2023-05-18T21:50:38.853Z,99411.00
2023-05-18T21:53:08.899Z,235282.00
2023-05-18T21:55:39.025Z,235282.00
2023-05-18T21:58:09.081Z,235282.00
2023-05-18T22:00:41.726Z,235282.00
2023-05-18T22:03:11.798Z,99381.00
2023-05-18T22:05:44.885Z,99412.00
2023-05-18T22:08:15.277Z,99410.00
2023-05-18T22:10:45.480Z,99412.00
2023-05-18T22:13:15.632Z,99416.00
2023-05-18T22:15:48.309Z,99408.00
2023-05-18T22:18:21.251Z,99417.00
2023-05-18T22:20:51.329Z,99418.00
2023-05-18T22:23:21.388Z,99407.00
2023-05-18T22:25:51.497Z,99393.00
2023-05-18T22:28:21.822Z,99404.00
2023-05-18T22:30:55.519Z,99407.00
2023-05-18T22:33:25.770Z,99401.00
2023-05-18T22:35:55.853Z,99397.00
2023-05-18T22:38:25.938Z,99392.00
2023-05-18T22:40:56.006Z,99399.00
2023-05-18T22:43:26.584Z,99398.00
2023-05-18T22:45:59.385Z,99393.00
2023-05-18T22:48:32.097Z,99391.00
2023-05-18T22:51:04.392Z,99388.00
2023-05-18T22:53:34.492Z,99383.00
2023-05-18T22:56:04.656Z,99386.00
2023-05-18T22:58:34.744Z,99392.00
2023-05-18T23:01:07.479Z,99390.00
2023-05-18T23:03:37.533Z,99376.00
2023-05-18T23:06:09.572Z,99379.00
2023-05-18T23:08:39.828Z,99379.00
2023-05-18T23:11:10.569Z,99387.00
2023-05-18T23:13:40.803Z,99381.00
2023-05-18T23:16:13.577Z,99376.00
2023-05-18T23:18:45.601Z,99382.00
2023-05-18T23:21:15.667Z,99380.00
2023-05-18T23:23:45.898Z,99378.00
2023-05-18T23:26:16.038Z,99373.00
2023-05-18T23:28:46.072Z,99374.00
2023-05-18T23:31:19.360Z,99370.00
2023-05-18T23:33:50.836Z,99376.00
2023-05-18T23:36:23.417Z,99359.00
2023-05-18T23:38:54.214Z,99348.00
2023-05-18T23:41:24.316Z,99360.00
2023-05-18T23:43:56.072Z,99365.00
2023-05-18T23:46:29.504Z,99354.00
2023-05-18T23:49:00.810Z,99346.00
2023-05-18T23:51:36.437Z,99351.00
2023-05-18T23:54:08.217Z,99336.00
2023-05-18T23:56:39.163Z,99345.00
2023-05-18T23:59:09.786Z,99343.00
